sensor_id;sensor_type;location;lat;lon;timestamp;P1;durP1;ratioP1;P2;durP2;ratioP2
54384;SDS011;40284;52.878;5.998;2023-10-09T00:01:03;13.87;;;7.07;;
54384;SDS011;40284;52.878;5.998;2023-10-09T00:03:34;11.93;;;7.57;;
54384;SDS011;40284;52.878;5.998;2023-10-09T00:06:02;18.75;;;7.70;;
54384;SDS011;40284;52.878;5.998;2023-10-09T00:08:29;16.50;;;7.70;;
54384;SDS011;40284;52.878;5.998;2023-10-09T00:10:56;15.27;;;8.85;;
54384;SDS011;40284;52.878;5.998;2023-10-09T00:13:26;12.38;;;8.63;;
54384;SDS011;40284;52.878;5.998;2023-10-09T00:16:05;19.95;;;9.77;;
54384;SDS011;40284;52.878;5.998;2023-10-09T00:18:40;15.90;;;8.48;;
54384;SDS011;40284;52.878;5.998;2023-10-09T00:21:14;15.85;;;8.52;;
54384;SDS011;40284;52.878;5.998;2023-10-09T00:23:41;15.40;;;8.63;;
54384;SDS011;40284;52.878;5.998;2023-10-09T00:26:10;28.73;;;9.75;;
54384;SDS011;40284;52.878;5.998;2023-10-09T00:28:37;19.92;;;9.60;;
54384;SDS011;40284;52.878;5.998;2023-10-09T00:31:15;22.38;;;12.43;;
54384;SDS011;40284;52.878;5.998;2023-10-09T00:33:42;23.25;;;10.95;;
54384;SDS011;40284;52.878;5.998;2023-10-09T00:36:08;15.40;;;10.80;;
54384;SDS011;40284;52.878;5.998;2023-10-09T00:38:38;17.92;;;10.30;;
54384;SDS011;40284;52.878;5.998;2023-10-09T00:41:14;17.85;;;10.20;;
54384;SDS011;40284;52.878;5.998;2023-10-09T00:43:54;19.98;;;11.13;;
54384;SDS011;40284;52.878;5.998;2023-10-09T00:46:24;20.25;;;11.52;;
54384;SDS011;40284;52.878;5.998;2023-10-09T00:48:52;17.83;;;11.77;;
54384;SDS011;40284;52.878;5.998;2023-10-09T00:51:19;25.83;;;12.68;;
54384;SDS011;40284;52.878;5.998;2023-10-09T00:53:47;22.98;;;12.13;;
54384;SDS011;40284;52.878;5.998;2023-10-09T00:56:16;24.42;;;14.15;;
54384;SDS011;40284;52.878;5.998;2023-10-09T00:58:54;23.33;;;13.52;;
54384;SDS011;40284;52.878;5.998;2023-10-09T01:01:24;24.20;;;14.20;;
54384;SDS011;40284;52.878;5.998;2023-10-09T01:04:00;22.05;;;14.43;;
54384;SDS011;40284;52.878;5.998;2023-10-09T01:06:38;27.17;;;15.43;;
54384;SDS011;40284;52.878;5.998;2023-10-09T01:09:12;25.00;;;14.93;;
54384;SDS011;40284;52.878;5.998;2023-10-09T01:11:39;33.60;;;16.90;;
54384;SDS011;40284;52.878;5.998;2023-10-09T01:14:24;32.22;;;18.73;;
54384;SDS011;40284;52.878;5.998;2023-10-09T01:16:50;32.83;;;18.55;;
54384;SDS011;40284;52.878;5.998;2023-10-09T01:19:19;34.25;;;18.95;;
54384;SDS011;40284;52.878;5.998;2023-10-09T01:21:49;37.03;;;19.30;;
54384;SDS011;40284;52.878;5.998;2023-10-09T01:24:15;34.40;;;20.58;;
54384;SDS011;40284;52.878;5.998;2023-10-09T01:26:42;37.47;;;20.67;;
54384;SDS011;40284;52.878;5.998;2023-10-09T01:31:50;35.78;;;20.85;;
54384;SDS011;40284;52.878;5.998;2023-10-09T01:34:20;35.83;;;22.40;;
54384;SDS011;40284;52.878;5.998;2023-10-09T01:36:50;35.80;;;23.02;;
54384;SDS011;40284;52.878;5.998;2023-10-09T01:39:19;39.13;;;22.13;;
54384;SDS011;40284;52.878;5.998;2023-10-09T01:42:05;42.58;;;23.15;;
54384;SDS011;40284;52.878;5.998;2023-10-09T01:44:32;40.67;;;25.17;;
54384;SDS011;40284;52.878;5.998;2023-10-09T01:47:08;41.80;;;24.45;;
54384;SDS011;40284;52.878;5.998;2023-10-09T01:49:39;44.40;;;26.33;;
54384;SDS011;40284;52.878;5.998;2023-10-09T01:52:09;43.22;;;25.92;;
54384;SDS011;40284;52.878;5.998;2023-10-09T01:54:37;42.10;;;25.85;;
54384;SDS011;40284;52.878;5.998;2023-10-09T01:57:04;46.65;;;25.95;;
54384;SDS011;40284;52.878;5.998;2023-10-09T01:59:31;48.30;;;26.77;;
54384;SDS011;40284;52.878;5.998;2023-10-09T02:01:58;43.45;;;27.13;;
54384;SDS011;40284;52.878;5.998;2023-10-09T02:04:26;47.53;;;27.98;;
54384;SDS011;40284;52.878;5.998;2023-10-09T02:06:52;45.65;;;28.55;;
54384;SDS011;40284;52.878;5.998;2023-10-09T02:09:18;48.10;;;28.50;;
54384;SDS011;40284;52.878;5.998;2023-10-09T02:11:51;55.85;;;31.75;;
54384;SDS011;40284;52.878;5.998;2023-10-09T02:14:17;45.38;;;28.70;;
54384;SDS011;40284;52.878;5.998;2023-10-09T02:16:47;53.55;;;30.00;;
54384;SDS011;40284;52.878;5.998;2023-10-09T02:19:33;51.33;;;29.48;;
54384;SDS011;40284;52.878;5.998;2023-10-09T02:22:02;48.40;;;29.50;;
54384;SDS011;40284;52.878;5.998;2023-10-09T02:24:39;45.72;;;29.65;;
54384;SDS011;40284;52.878;5.998;2023-10-09T02:27:14;54.10;;;31.42;;
54384;SDS011;40284;52.878;5.998;2023-10-09T02:30:00;48.65;;;30.73;;
54384;SDS011;40284;52.878;5.998;2023-10-09T02:32:34;58.25;;;32.63;;
54384;SDS011;40284;52.878;5.998;2023-10-09T02:35:03;57.13;;;31.63;;
54384;SDS011;40284;52.878;5.998;2023-10-09T02:37:35;59.72;;;32.60;;
54384;SDS011;40284;52.878;5.998;2023-10-09T02:40:03;55.90;;;32.22;;
54384;SDS011;40284;52.878;5.998;2023-10-09T02:42:33;54.85;;;31.63;;
54384;SDS011;40284;52.878;5.998;2023-10-09T02:45:00;52.83;;;31.90;;
54384;SDS011;40284;52.878;5.998;2023-10-09T02:47:29;54.75;;;32.38;;
54384;SDS011;40284;52.878;5.998;2023-10-09T02:49:56;57.50;;;32.95;;
54384;SDS011;40284;52.878;5.998;2023-10-09T02:52:31;59.03;;;31.23;;
54384;SDS011;40284;52.878;5.998;2023-10-09T02:55:05;49.95;;;31.23;;
54384;SDS011;40284;52.878;5.998;2023-10-09T02:57:37;53.85;;;32.92;;
54384;SDS011;40284;52.878;5.998;2023-10-09T03:00:06;58.20;;;32.88;;
54384;SDS011;40284;52.878;5.998;2023-10-09T03:02:58;56.85;;;33.72;;
54384;SDS011;40284;52.878;5.998;2023-10-09T03:05:24;56.25;;;30.63;;
54384;SDS011;40284;52.878;5.998;2023-10-09T03:07:54;58.08;;;33.15;;
54384;SDS011;40284;52.878;5.998;2023-10-09T03:10:23;51.42;;;32.10;;
54384;SDS011;40284;52.878;5.998;2023-10-09T03:12:51;59.92;;;34.50;;
54384;SDS011;40284;52.878;5.998;2023-10-09T03:15:21;50.42;;;29.30;;
54384;SDS011;40284;52.878;5.998;2023-10-09T03:17:47;50.60;;;30.63;;
54384;SDS011;40284;52.878;5.998;2023-10-09T03:20:14;51.83;;;30.65;;
54384;SDS011;40284;52.878;5.998;2023-10-09T03:22:42;48.53;;;30.27;;
54384;SDS011;40284;52.878;5.998;2023-10-09T03:25:10;46.67;;;28.35;;
54384;SDS011;40284;52.878;5.998;2023-10-09T03:27:42;53.35;;;30.20;;
54384;SDS011;40284;52.878;5.998;2023-10-09T03:30:14;45.33;;;27.25;;
54384;SDS011;40284;52.878;5.998;2023-10-09T03:32:45;41.25;;;26.73;;
54384;SDS011;40284;52.878;5.998;2023-10-09T03:35:16;40.78;;;25.70;;
54384;SDS011;40284;52.878;5.998;2023-10-09T03:37:49;46.03;;;27.00;;
54384;SDS011;40284;52.878;5.998;2023-10-09T03:40:15;39.00;;;24.63;;
54384;SDS011;40284;52.878;5.998;2023-10-09T03:42:43;41.90;;;24.63;;
54384;SDS011;40284;52.878;5.998;2023-10-09T03:45:10;48.38;;;26.38;;
54384;SDS011;40284;52.878;5.998;2023-10-09T03:47:50;35.53;;;24.15;;
54384;SDS011;40284;52.878;5.998;2023-10-09T03:50:21;39.38;;;26.13;;
54384;SDS011;40284;52.878;5.998;2023-10-09T03:53:07;38.47;;;24.65;;
54384;SDS011;40284;52.878;5.998;2023-10-09T03:55:34;36.42;;;23.13;;
54384;SDS011;40284;52.878;5.998;2023-10-09T03:58:03;34.55;;;23.02;;
54384;SDS011;40284;52.878;5.998;2023-10-09T04:00:29;34.22;;;22.55;;
54384;SDS011;40284;52.878;5.998;2023-10-09T04:02:56;38.13;;;23.58;;
54384;SDS011;40284;52.878;5.998;2023-10-09T04:05:23;37.05;;;22.80;;
54384;SDS011;40284;52.878;5.998;2023-10-09T04:07:49;36.05;;;21.33;;
54384;SDS011;40284;52.878;5.998;2023-10-09T04:10:19;37.28;;;21.98;;
54384;SDS011;40284;52.878;5.998;2023-10-09T04:13:11;33.87;;;20.77;;
54384;SDS011;40284;52.878;5.998;2023-10-09T04:15:42;35.05;;;22.25;;
54384;SDS011;40284;52.878;5.998;2023-10-09T04:18:08;41.65;;;20.70;;
54384;SDS011;40284;52.878;5.998;2023-10-09T04:20:42;30.35;;;20.45;;
54384;SDS011;40284;52.878;5.998;2023-10-09T04:23:27;38.75;;;21.77;;
54384;SDS011;40284;52.878;5.998;2023-10-09T04:26:22;37.88;;;19.92;;
54384;SDS011;40284;52.878;5.998;2023-10-09T04:28:50;29.70;;;19.10;;
54384;SDS011;40284;52.878;5.998;2023-10-09T04:31:21;28.38;;;17.70;;
54384;SDS011;40284;52.878;5.998;2023-10-09T04:33:52;29.85;;;18.15;;
54384;SDS011;40284;52.878;5.998;2023-10-09T04:36:57;26.52;;;17.40;;
54384;SDS011;40284;52.878;5.998;2023-10-09T04:39:29;25.20;;;16.02;;
54384;SDS011;40284;52.878;5.998;2023-10-09T04:41:56;28.52;;;15.85;;
54384;SDS011;40284;52.878;5.998;2023-10-09T04:44:46;23.70;;;14.55;;
54384;SDS011;40284;52.878;5.998;2023-10-09T04:47:27;28.65;;;15.75;;
54384;SDS011;40284;52.878;5.998;2023-10-09T04:50:25;25.52;;;13.82;;
54384;SDS011;40284;52.878;5.998;2023-10-09T04:52:54;23.92;;;13.65;;
54384;SDS011;40284;52.878;5.998;2023-10-09T04:55:20;25.25;;;13.32;;
54384;SDS011;40284;52.878;5.998;2023-10-09T04:57:50;25.27;;;13.57;;
54384;SDS011;40284;52.878;5.998;2023-10-09T05:00:26;20.92;;;12.77;;
54384;SDS011;40284;52.878;5.998;2023-10-09T05:02:52;25.75;;;13.13;;
54384;SDS011;40284;52.878;5.998;2023-10-09T05:05:26;22.13;;;13.00;;
54384;SDS011;40284;52.878;5.998;2023-10-09T05:10:47;26.02;;;11.55;;
54384;SDS011;40284;52.878;5.998;2023-10-09T05:13:34;24.83;;;12.88;;
54384;SDS011;40284;52.878;5.998;2023-10-09T05:18:32;23.00;;;11.40;;
54384;SDS011;40284;52.878;5.998;2023-10-09T05:21:02;20.33;;;11.73;;
54384;SDS011;40284;52.878;5.998;2023-10-09T05:23:37;19.92;;;11.75;;
54384;SDS011;40284;52.878;5.998;2023-10-09T05:26:16;22.23;;;12.05;;
54384;SDS011;40284;52.878;5.998;2023-10-09T05:29:02;23.30;;;11.00;;
54384;SDS011;40284;52.878;5.998;2023-10-09T05:31:49;19.25;;;9.68;;
54384;SDS011;40284;52.878;5.998;2023-10-09T05:34:25;17.48;;;10.10;;
54384;SDS011;40284;52.878;5.998;2023-10-09T05:37:10;19.13;;;10.10;;
54384;SDS011;40284;52.878;5.998;2023-10-09T05:39:45;28.40;;;10.43;;
54384;SDS011;40284;52.878;5.998;2023-10-09T05:42:27;20.88;;;9.88;;
54384;SDS011;40284;52.878;5.998;2023-10-09T05:45:17;16.70;;;9.38;;
54384;SDS011;40284;52.878;5.998;2023-10-09T05:47:43;19.80;;;9.80;;
54384;SDS011;40284;52.878;5.998;2023-10-09T05:50:22;17.38;;;9.73;;
54384;SDS011;40284;52.878;5.998;2023-10-09T05:52:48;15.70;;;9.40;;
54384;SDS011;40284;52.878;5.998;2023-10-09T05:55:18;20.35;;;9.77;;
54384;SDS011;40284;52.878;5.998;2023-10-09T05:57:53;18.77;;;9.18;;
54384;SDS011;40284;52.878;5.998;2023-10-09T06:00:28;17.20;;;8.80;;
54384;SDS011;40284;52.878;5.998;2023-10-09T06:03:12;26.25;;;9.70;;
54384;SDS011;40284;52.878;5.998;2023-10-09T06:05:49;15.65;;;8.95;;
54384;SDS011;40284;52.878;5.998;2023-10-09T06:08:21;21.88;;;10.07;;
54384;SDS011;40284;52.878;5.998;2023-10-09T06:11:09;19.17;;;9.50;;
54384;SDS011;40284;52.878;5.998;2023-10-09T06:13:54;19.63;;;8.90;;
54384;SDS011;40284;52.878;5.998;2023-10-09T06:16:41;19.50;;;10.27;;
54384;SDS011;40284;52.878;5.998;2023-10-09T06:19:11;20.27;;;10.13;;
54384;SDS011;40284;52.878;5.998;2023-10-09T06:21:38;16.75;;;9.57;;
54384;SDS011;40284;52.878;5.998;2023-10-09T06:24:08;23.65;;;10.18;;
54384;SDS011;40284;52.878;5.998;2023-10-09T06:26:39;19.95;;;11.07;;
54384;SDS011;40284;52.878;5.998;2023-10-09T06:29:16;17.08;;;9.15;;
54384;SDS011;40284;52.878;5.998;2023-10-09T06:31:58;19.65;;;9.80;;
54384;SDS011;40284;52.878;5.998;2023-10-09T06:34:42;20.17;;;9.13;;
54384;SDS011;40284;52.878;5.998;2023-10-09T06:37:10;21.20;;;9.50;;
54384;SDS011;40284;52.878;5.998;2023-10-09T06:40:02;23.33;;;10.60;;
54384;SDS011;40284;52.878;5.998;2023-10-09T06:42:47;22.67;;;9.68;;
54384;SDS011;40284;52.878;5.998;2023-10-09T06:45:16;23.52;;;9.77;;
54384;SDS011;40284;52.878;5.998;2023-10-09T06:47:43;22.08;;;8.70;;
54384;SDS011;40284;52.878;5.998;2023-10-09T06:50:22;28.25;;;9.95;;
54384;SDS011;40284;52.878;5.998;2023-10-09T06:52:52;23.88;;;9.45;;
54384;SDS011;40284;52.878;5.998;2023-10-09T06:55:37;25.30;;;9.20;;
54384;SDS011;40284;52.878;5.998;2023-10-09T06:58:19;21.70;;;10.35;;
54384;SDS011;40284;52.878;5.998;2023-10-09T07:00:51;24.30;;;9.82;;
54384;SDS011;40284;52.878;5.998;2023-10-09T07:03:24;24.43;;;9.50;;
54384;SDS011;40284;52.878;5.998;2023-10-09T07:06:06;26.08;;;10.13;;
54384;SDS011;40284;52.878;5.998;2023-10-09T07:08:51;16.00;;;9.43;;
54384;SDS011;40284;52.878;5.998;2023-10-09T07:11:38;24.15;;;10.18;;
54384;SDS011;40284;52.878;5.998;2023-10-09T07:14:04;24.48;;;10.52;;
54384;SDS011;40284;52.878;5.998;2023-10-09T07:16:32;22.20;;;10.98;;
54384;SDS011;40284;52.878;5.998;2023-10-09T07:19:04;27.90;;;9.48;;
54384;SDS011;40284;52.878;5.998;2023-10-09T07:21:49;19.30;;;9.93;;
54384;SDS011;40284;52.878;5.998;2023-10-09T07:24:19;21.98;;;8.48;;
54384;SDS011;40284;52.878;5.998;2023-10-09T07:26:50;17.08;;;9.52;;
54384;SDS011;40284;52.878;5.998;2023-10-09T07:29:21;24.33;;;9.45;;
54384;SDS011;40284;52.878;5.998;2023-10-09T07:31:48;25.30;;;9.95;;
54384;SDS011;40284;52.878;5.998;2023-10-09T07:34:22;20.80;;;8.95;;
54384;SDS011;40284;52.878;5.998;2023-10-09T07:37:08;19.48;;;8.95;;
54384;SDS011;40284;52.878;5.998;2023-10-09T07:39:34;19.17;;;8.48;;
54384;SDS011;40284;52.878;5.998;2023-10-09T07:42:02;17.95;;;8.15;;
54384;SDS011;40284;52.878;5.998;2023-10-09T07:44:40;17.33;;;8.60;;
54384;SDS011;40284;52.878;5.998;2023-10-09T07:47:11;22.58;;;9.23;;
54384;SDS011;40284;52.878;5.998;2023-10-09T07:49:56;19.75;;;8.77;;
54384;SDS011;40284;52.878;5.998;2023-10-09T07:52:24;18.30;;;9.02;;
54384;SDS011;40284;52.878;5.998;2023-10-09T07:54:51;23.58;;;8.73;;
54384;SDS011;40284;52.878;5.998;2023-10-09T07:57:26;22.00;;;9.05;;
54384;SDS011;40284;52.878;5.998;2023-10-09T07:59:58;25.65;;;9.38;;
54384;SDS011;40284;52.878;5.998;2023-10-09T08:02:27;18.00;;;8.85;;
54384;SDS011;40284;52.878;5.998;2023-10-09T08:04:57;23.15;;;10.30;;
54384;SDS011;40284;52.878;5.998;2023-10-09T08:07:28;22.33;;;10.55;;
54384;SDS011;40284;52.878;5.998;2023-10-09T08:10:02;22.63;;;9.83;;
54384;SDS011;40284;52.878;5.998;2023-10-09T08:12:44;31.00;;;13.30;;
54384;SDS011;40284;52.878;5.998;2023-10-09T08:15:13;21.08;;;9.68;;
54384;SDS011;40284;52.878;5.998;2023-10-09T08:17:39;25.20;;;10.35;;
54384;SDS011;40284;52.878;5.998;2023-10-09T08:20:13;20.25;;;10.10;;
54384;SDS011;40284;52.878;5.998;2023-10-09T08:22:42;23.70;;;10.18;;
54384;SDS011;40284;52.878;5.998;2023-10-09T08:25:09;21.90;;;9.43;;
54384;SDS011;40284;52.878;5.998;2023-10-09T08:27:55;25.88;;;10.80;;
54384;SDS011;40284;52.878;5.998;2023-10-09T08:30:22;22.50;;;9.40;;
54384;SDS011;40284;52.878;5.998;2023-10-09T08:32:51;21.25;;;10.07;;
54384;SDS011;40284;52.878;5.998;2023-10-09T08:35:36;23.50;;;9.38;;
54384;SDS011;40284;52.878;5.998;2023-10-09T08:38:12;19.95;;;10.43;;
54384;SDS011;40284;52.878;5.998;2023-10-09T08:40:39;22.17;;;9.57;;
54384;SDS011;40284;52.878;5.998;2023-10-09T08:43:08;27.00;;;10.73;;
54384;SDS011;40284;52.878;5.998;2023-10-09T08:45:38;21.98;;;9.15;;
54384;SDS011;40284;52.878;5.998;2023-10-09T08:48:08;21.83;;;9.50;;
54384;SDS011;40284;52.878;5.998;2023-10-09T08:50:40;16.80;;;8.55;;
54384;SDS011;40284;52.878;5.998;2023-10-09T08:53:08;18.50;;;8.75;;
54384;SDS011;40284;52.878;5.998;2023-10-09T08:55:36;20.33;;;8.30;;
54384;SDS011;40284;52.878;5.998;2023-10-09T08:58:04;17.20;;;8.63;;
54384;SDS011;40284;52.878;5.998;2023-10-09T09:00:56;17.85;;;9.30;;
54384;SDS011;40284;52.878;5.998;2023-10-09T09:03:23;20.67;;;9.98;;
54384;SDS011;40284;52.878;5.998;2023-10-09T09:05:57;22.80;;;9.38;;
54384;SDS011;40284;52.878;5.998;2023-10-09T09:08:26;17.85;;;8.48;;
54384;SDS011;40284;52.878;5.998;2023-10-09T09:10:58;20.77;;;9.02;;
54384;SDS011;40284;52.878;5.998;2023-10-09T09:13:36;22.95;;;8.73;;
54384;SDS011;40284;52.878;5.998;2023-10-09T09:16:02;16.42;;;7.57;;
54384;SDS011;40284;52.878;5.998;2023-10-09T09:18:29;16.38;;;8.57;;
54384;SDS011;40284;52.878;5.998;2023-10-09T09:21:02;22.38;;;8.77;;
54384;SDS011;40284;52.878;5.998;2023-10-09T09:23:43;20.00;;;8.07;;
54384;SDS011;40284;52.878;5.998;2023-10-09T09:26:21;22.15;;;8.60;;
54384;SDS011;40284;52.878;5.998;2023-10-09T09:29:02;21.70;;;8.98;;
54384;SDS011;40284;52.878;5.998;2023-10-09T09:31:30;16.77;;;8.70;;
54384;SDS011;40284;52.878;5.998;2023-10-09T09:34:03;21.67;;;10.02;;
54384;SDS011;40284;52.878;5.998;2023-10-09T09:36:34;21.30;;;8.20;;
54384;SDS011;40284;52.878;5.998;2023-10-09T09:39:00;17.83;;;7.53;;
54384;SDS011;40284;52.878;5.998;2023-10-09T09:41:29;20.10;;;9.48;;
54384;SDS011;40284;52.878;5.998;2023-10-09T09:43:59;22.98;;;8.68;;
54384;SDS011;40284;52.878;5.998;2023-10-09T09:46:34;15.98;;;8.10;;
54384;SDS011;40284;52.878;5.998;2023-10-09T09:49:05;22.98;;;8.25;;
54384;SDS011;40284;52.878;5.998;2023-10-09T09:51:41;20.80;;;7.05;;
54384;SDS011;40284;52.878;5.998;2023-10-09T09:54:12;15.88;;;7.20;;
54384;SDS011;40284;52.878;5.998;2023-10-09T09:56:40;23.23;;;7.82;;
54384;SDS011;40284;52.878;5.998;2023-10-09T09:59:15;17.10;;;7.63;;
54384;SDS011;40284;52.878;5.998;2023-10-09T10:01:47;21.98;;;8.75;;
54384;SDS011;40284;52.878;5.998;2023-10-09T10:04:22;22.45;;;8.25;;
54384;SDS011;40284;52.878;5.998;2023-10-09T10:06:50;21.40;;;7.43;;
54384;SDS011;40284;52.878;5.998;2023-10-09T10:09:35;20.33;;;8.15;;
54384;SDS011;40284;52.878;5.998;2023-10-09T10:12:04;20.05;;;8.38;;
54384;SDS011;40284;52.878;5.998;2023-10-09T10:17:17;21.67;;;7.57;;
54384;SDS011;40284;52.878;5.998;2023-10-09T10:22:43;15.60;;;7.13;;
54384;SDS011;40284;52.878;5.998;2023-10-09T10:31:10;21.40;;;7.32;;
54384;SDS011;40284;52.878;5.998;2023-10-09T10:36:23;19.40;;;8.35;;
54384;SDS011;40284;52.878;5.998;2023-10-09T10:41:30;20.65;;;9.38;;
54384;SDS011;40284;52.878;5.998;2023-10-09T10:44:01;22.20;;;8.23;;
54384;SDS011;40284;52.878;5.998;2023-10-09T10:46:48;18.27;;;8.00;;
54384;SDS011;40284;52.878;5.998;2023-10-09T10:49:17;21.50;;;8.27;;
54384;SDS011;40284;52.878;5.998;2023-10-09T10:51:50;14.73;;;7.32;;
54384;SDS011;40284;52.878;5.998;2023-10-09T10:54:42;19.48;;;7.72;;
54384;SDS011;40284;52.878;5.998;2023-10-09T10:57:18;23.45;;;9.20;;
54384;SDS011;40284;52.878;5.998;2023-10-09T10:59:56;23.20;;;7.93;;
54384;SDS011;40284;52.878;5.998;2023-10-09T11:02:58;19.17;;;8.30;;
54384;SDS011;40284;52.878;5.998;2023-10-09T11:05:42;21.55;;;7.80;;
54384;SDS011;40284;52.878;5.998;2023-10-09T11:10:43;21.80;;;7.70;;
54384;SDS011;40284;52.878;5.998;2023-10-09T11:13:24;17.17;;;7.55;;
54384;SDS011;40284;52.878;5.998;2023-10-09T11:15:55;17.85;;;7.90;;
54384;SDS011;40284;52.878;5.998;2023-10-09T11:18:40;15.63;;;6.75;;
54384;SDS011;40284;52.878;5.998;2023-10-09T11:21:13;17.55;;;7.35;;
54384;SDS011;40284;52.878;5.998;2023-10-09T11:23:39;16.50;;;6.95;;
54384;SDS011;40284;52.878;5.998;2023-10-09T11:26:22;14.85;;;7.45;;
54384;SDS011;40284;52.878;5.998;2023-10-09T11:32:00;14.15;;;5.88;;
54384;SDS011;40284;52.878;5.998;2023-10-09T11:34:26;11.30;;;4.90;;
54384;SDS011;40284;52.878;5.998;2023-10-09T11:39:37;9.70;;;5.00;;
54384;SDS011;40284;52.878;5.998;2023-10-09T11:42:17;15.50;;;5.43;;
54384;SDS011;40284;52.878;5.998;2023-10-09T11:45:04;16.73;;;4.55;;
54384;SDS011;40284;52.878;5.998;2023-10-09T11:47:48;13.25;;;5.63;;
54384;SDS011;40284;52.878;5.998;2023-10-09T11:50:39;9.65;;;4.95;;
54384;SDS011;40284;52.878;5.998;2023-10-09T11:53:09;12.90;;;5.68;;
54384;SDS011;40284;52.878;5.998;2023-10-09T11:55:55;14.88;;;4.50;;
54384;SDS011;40284;52.878;5.998;2023-10-09T11:58:21;12.23;;;4.15;;
54384;SDS011;40284;52.878;5.998;2023-10-09T12:00:57;11.65;;;4.25;;
54384;SDS011;40284;52.878;5.998;2023-10-09T12:03:30;14.38;;;4.38;;
54384;SDS011;40284;52.878;5.998;2023-10-09T12:06:00;11.70;;;4.72;;
54384;SDS011;40284;52.878;5.998;2023-10-09T12:08:33;11.10;;;3.85;;
54384;SDS011;40284;52.878;5.998;2023-10-09T12:11:00;11.20;;;4.38;;
54384;SDS011;40284;52.878;5.998;2023-10-09T12:13:33;9.82;;;3.42;;
54384;SDS011;40284;52.878;5.998;2023-10-09T12:15:59;10.38;;;3.45;;
54384;SDS011;40284;52.878;5.998;2023-10-09T12:18:25;12.30;;;3.63;;
54384;SDS011;40284;52.878;5.998;2023-10-09T12:20:53;7.05;;;2.83;;
54384;SDS011;40284;52.878;5.998;2023-10-09T12:23:27;8.20;;;3.25;;
54384;SDS011;40284;52.878;5.998;2023-10-09T12:25:54;9.27;;;2.50;;
54384;SDS011;40284;52.878;5.998;2023-10-09T12:28:23;10.18;;;3.85;;
54384;SDS011;40284;52.878;5.998;2023-10-09T12:30:49;10.18;;;4.07;;
54384;SDS011;40284;52.878;5.998;2023-10-09T12:33:16;11.50;;;3.50;;
54384;SDS011;40284;52.878;5.998;2023-10-09T12:35:42;6.50;;;2.78;;
54384;SDS011;40284;52.878;5.998;2023-10-09T12:38:10;10.85;;;3.33;;
54384;SDS011;40284;52.878;5.998;2023-10-09T12:40:37;10.82;;;3.05;;
54384;SDS011;40284;52.878;5.998;2023-10-09T12:43:06;8.40;;;3.05;;
54384;SDS011;40284;52.878;5.998;2023-10-09T12:45:40;5.57;;;3.03;;
54384;SDS011;40284;52.878;5.998;2023-10-09T12:48:06;11.50;;;3.78;;
54384;SDS011;40284;52.878;5.998;2023-10-09T12:50:37;11.90;;;3.80;;
54384;SDS011;40284;52.878;5.998;2023-10-09T12:53:10;9.13;;;3.70;;
54384;SDS011;40284;52.878;5.998;2023-10-09T12:55:39;11.85;;;3.53;;
54384;SDS011;40284;52.878;5.998;2023-10-09T12:58:06;6.93;;;3.17;;
54384;SDS011;40284;52.878;5.998;2023-10-09T13:00:34;14.80;;;4.43;;
54384;SDS011;40284;52.878;5.998;2023-10-09T13:03:07;8.30;;;3.75;;
54384;SDS011;40284;52.878;5.998;2023-10-09T13:05:52;9.77;;;4.03;;
54384;SDS011;40284;52.878;5.998;2023-10-09T13:08:25;13.98;;;3.78;;
54384;SDS011;40284;52.878;5.998;2023-10-09T13:11:04;14.07;;;4.72;;
54384;SDS011;40284;52.878;5.998;2023-10-09T13:13:40;10.52;;;4.15;;
54384;SDS011;40284;52.878;5.998;2023-10-09T13:16:11;13.98;;;4.75;;
54384;SDS011;40284;52.878;5.998;2023-10-09T13:18:41;15.90;;;5.22;;
54384;SDS011;40284;52.878;5.998;2023-10-09T13:21:15;12.82;;;3.78;;
54384;SDS011;40284;52.878;5.998;2023-10-09T13:23:41;15.70;;;3.97;;
54384;SDS011;40284;52.878;5.998;2023-10-09T13:26:12;15.23;;;4.20;;
54384;SDS011;40284;52.878;5.998;2023-10-09T13:28:50;12.65;;;4.53;;
54384;SDS011;40284;52.878;5.998;2023-10-09T13:31:17;12.23;;;4.60;;
54384;SDS011;40284;52.878;5.998;2023-10-09T13:33:45;14.98;;;5.28;;
54384;SDS011;40284;52.878;5.998;2023-10-09T13:36:12;16.08;;;5.05;;
54384;SDS011;40284;52.878;5.998;2023-10-09T13:38:44;17.27;;;5.30;;
54384;SDS011;40284;52.878;5.998;2023-10-09T13:41:10;14.63;;;5.53;;
54384;SDS011;40284;52.878;5.998;2023-10-09T13:43:42;16.35;;;5.55;;
54384;SDS011;40284;52.878;5.998;2023-10-09T13:46:12;16.65;;;4.85;;
54384;SDS011;40284;52.878;5.998;2023-10-09T13:48:42;15.23;;;5.47;;
54384;SDS011;40284;52.878;5.998;2023-10-09T13:51:11;14.65;;;4.53;;
54384;SDS011;40284;52.878;5.998;2023-10-09T13:53:47;15.70;;;4.90;;
54384;SDS011;40284;52.878;5.998;2023-10-09T13:56:13;12.27;;;4.18;;
54384;SDS011;40284;52.878;5.998;2023-10-09T13:58:43;14.43;;;4.85;;
54384;SDS011;40284;52.878;5.998;2023-10-09T14:01:09;16.92;;;4.80;;
54384;SDS011;40284;52.878;5.998;2023-10-09T14:03:35;12.45;;;4.05;;
54384;SDS011;40284;52.878;5.998;2023-10-09T14:06:04;10.85;;;4.07;;
54384;SDS011;40284;52.878;5.998;2023-10-09T14:08:37;15.13;;;4.05;;
54384;SDS011;40284;52.878;5.998;2023-10-09T14:11:09;11.70;;;4.15;;
54384;SDS011;40284;52.878;5.998;2023-10-09T14:13:39;14.68;;;4.40;;
54384;SDS011;40284;52.878;5.998;2023-10-09T14:16:05;11.60;;;4.18;;
54384;SDS011;40284;52.878;5.998;2023-10-09T14:18:32;14.20;;;4.43;;
54384;SDS011;40284;52.878;5.998;2023-10-09T14:21:01;14.32;;;4.68;;
54384;SDS011;40284;52.878;5.998;2023-10-09T14:23:35;13.15;;;4.63;;
54384;SDS011;40284;52.878;5.998;2023-10-09T14:26:01;12.98;;;4.80;;
54384;SDS011;40284;52.878;5.998;2023-10-09T14:28:27;10.57;;;4.13;;
54384;SDS011;40284;52.878;5.998;2023-10-09T14:30:54;12.75;;;5.38;;
54384;SDS011;40284;52.878;5.998;2023-10-09T14:33:25;16.42;;;4.88;;
54384;SDS011;40284;52.878;5.998;2023-10-09T14:35:54;10.95;;;4.05;;
54384;SDS011;40284;52.878;5.998;2023-10-09T14:38:20;12.75;;;4.35;;
54384;SDS011;40284;52.878;5.998;2023-10-09T14:40:52;13.83;;;4.03;;
54384;SDS011;40284;52.878;5.998;2023-10-09T14:43:25;11.35;;;4.32;;
54384;SDS011;40284;52.878;5.998;2023-10-09T14:45:58;12.48;;;4.45;;
54384;SDS011;40284;52.878;5.998;2023-10-09T14:48:24;11.60;;;3.80;;
54384;SDS011;40284;52.878;5.998;2023-10-09T14:50:54;13.00;;;4.43;;
54384;SDS011;40284;52.878;5.998;2023-10-09T14:53:22;13.65;;;4.25;;
54384;SDS011;40284;52.878;5.998;2023-10-09T14:55:55;11.02;;;3.95;;
54384;SDS011;40284;52.878;5.998;2023-10-09T14:58:21;9.95;;;4.20;;
54384;SDS011;40284;52.878;5.998;2023-10-09T15:00:53;11.90;;;3.00;;
54384;SDS011;40284;52.878;5.998;2023-10-09T15:03:19;10.88;;;3.75;;
54384;SDS011;40284;52.878;5.998;2023-10-09T15:05:46;8.55;;;3.28;;
54384;SDS011;40284;52.878;5.998;2023-10-09T15:08:12;9.50;;;3.28;;
54384;SDS011;40284;52.878;5.998;2023-10-09T15:10:48;8.40;;;2.67;;
54384;SDS011;40284;52.878;5.998;2023-10-09T15:13:14;8.60;;;3.33;;
54384;SDS011;40284;52.878;5.998;2023-10-09T15:15:44;12.93;;;3.83;;
54384;SDS011;40284;52.878;5.998;2023-10-09T15:18:10;13.98;;;3.85;;
54384;SDS011;40284;52.878;5.998;2023-10-09T15:20:40;12.30;;;4.03;;
54384;SDS011;40284;52.878;5.998;2023-10-09T15:23:07;11.57;;;4.03;;
54384;SDS011;40284;52.878;5.998;2023-10-09T15:25:33;13.98;;;4.03;;
54384;SDS011;40284;52.878;5.998;2023-10-09T15:28:03;13.98;;;3.58;;
54384;SDS011;40284;52.878;5.998;2023-10-09T15:30:29;11.38;;;4.10;;
54384;SDS011;40284;52.878;5.998;2023-10-09T15:32:57;12.75;;;4.18;;
54384;SDS011;40284;52.878;5.998;2023-10-09T15:35:23;9.52;;;4.47;;